Time,TemperatureF,DewpointF,PressureIn,WindDirection,WindDirectionDegrees,WindSpeedMPH,WindSpeedGustMPH,Humidity,HourlyPrecipIn,Conditions,Clouds,dailyrainin,SoftwareType,DateUTC
2013-02-05 00:01:00,30.7,16.5,29.88,WNW,292,4.7,-999.0,55,-99.99,,,0.00,Acu-Link.com,2013-02-05 05:01:00,
2013-02-05 00:16:00,30.7,17.3,29.88,West,270,3.2,-999.0,57,-99.99,,,0.00,Acu-Link.com,2013-02-05 05:16:00,
2013-02-05 00:31:00,30.7,17.3,29.87,WNW,292,3.7,-999.0,57,-99.99,,,0.00,Acu-Link.com,2013-02-05 05:31:00,
2013-02-05 00:47:00,31.1,18.9,29.86,WNW,292,2.2,-999.0,60,-99.99,,,0.00,Acu-Link.com,2013-02-05 05:47:00,
2013-02-05 01:02:00,30.2,19.1,29.86,WSW,247,4.2,-999.0,63,-99.99,,,0.00,Acu-Link.com,2013-02-05 06:02:00,
2013-02-05 01:17:00,30.4,20.8,29.86,West,270,2.2,-999.0,67,-99.99,,,0.00,Acu-Link.com,2013-02-05 06:17:00,
2013-02-05 01:32:00,30.6,22.3,29.87,South,180,4.2,-999.0,71,-99.99,,,0.00,Acu-Link.com,2013-02-05 06:32:00,
2013-02-05 01:48:00,30.4,23.1,29.86,SSW,202,3.7,-999.0,74,-99.99,,,0.00,Acu-Link.com,2013-02-05 06:48:00,
2013-02-05 02:03:00,30.2,23.9,29.86,North,0,1.1,-999.0,77,-99.99,,,0.00,Acu-Link.com,2013-02-05 07:03:00,
2013-02-05 02:18:00,29.5,23.8,29.86,SW,225,3.7,-999.0,79,-99.99,,,0.00,Acu-Link.com,2013-02-05 07:18:00,
2013-02-05 02:34:00,29.7,23.7,29.85,WNW,292,2.2,-999.0,78,-99.99,,,0.00,Acu-Link.com,2013-02-05 07:34:00,
2013-02-05 02:49:00,30.2,24.5,29.85,WSW,247,4.2,-999.0,79,-99.99,,,0.00,Acu-Link.com,2013-02-05 07:49:00,
2013-02-05 03:04:00,29.8,24.7,29.85,South,180,2.2,-999.0,81,-99.99,,,0.00,Acu-Link.com,2013-02-05 08:04:00,
2013-02-05 03:19:00,29.7,24.9,29.85,West,270,4.7,-999.0,82,-99.99,,,0.00,Acu-Link.com,2013-02-05 08:19:00,
2013-02-05 03:35:00,29.7,25.2,29.85,SW,225,5.8,-999.0,83,-99.99,,,0.00,Acu-Link.com,2013-02-05 08:35:00,
2013-02-05 03:50:00,30.0,25.5,29.85,West,270,2.2,-999.0,83,-99.99,,,0.00,Acu-Link.com,2013-02-05 08:50:00,
2013-02-05 04:05:00,30.2,25.1,29.83,West,270,1.7,-999.0,81,-99.99,,,0.00,Acu-Link.com,2013-02-05 09:05:00,
2013-02-05 04:21:00,30.0,25.8,29.83,West,270,2.7,-999.0,84,-99.99,,,0.00,Acu-Link.com,2013-02-05 09:21:00,
2013-02-05 04:36:00,30.0,26.6,29.83,WNW,292,4.7,-999.0,87,-99.99,,,0.00,Acu-Link.com,2013-02-05 09:36:00,
2013-02-05 04:51:00,30.2,27.1,29.83,West,270,3.2,-999.0,88,-99.99,,,0.00,Acu-Link.com,2013-02-05 09:51:00,
2013-02-05 05:07:00,29.5,26.4,29.83,WNW,292,4.7,-999.0,88,-99.99,,,0.00,Acu-Link.com,2013-02-05 10:07:00,
2013-02-05 05:22:00,29.5,26.4,29.83,West,270,3.7,-999.0,88,-99.99,,,0.00,Acu-Link.com,2013-02-05 10:22:00,
2013-02-05 05:37:00,29.7,26.3,29.83,West,270,5.8,-999.0,87,-99.99,,,0.00,Acu-Link.com,2013-02-05 10:37:00,
2013-02-05 05:53:00,29.8,26.4,29.85,NE,45,4.2,-999.0,87,-99.99,,,0.00,Acu-Link.com,2013-02-05 10:53:00,
2013-02-05 06:08:00,29.7,26.6,29.83,WNW,292,4.7,-999.0,88,-99.99,,,0.00,Acu-Link.com,2013-02-05 11:08:00,
2013-02-05 06:23:00,29.7,26.3,29.84,North,0,4.7,-999.0,87,-99.99,,,0.00,Acu-Link.com,2013-02-05 11:23:00,
2013-02-05 06:39:00,29.3,25.6,29.84,NNW,337,4.7,-999.0,86,-99.99,,,0.00,Acu-Link.com,2013-02-05 11:39:00,
2013-02-05 06:54:00,29.5,25.8,29.86,NW,315,6.8,-999.0,86,-99.99,,,0.00,Acu-Link.com,2013-02-05 11:54:00,
2013-02-05 07:09:00,29.3,25.6,29.86,NNW,337,4.7,-999.0,86,-99.99,,,0.00,Acu-Link.com,2013-02-05 12:09:00,
2013-02-05 07:25:00,29.3,25.9,29.86,NNW,337,5.8,-999.0,87,-99.99,,,0.00,Acu-Link.com,2013-02-05 12:25:00,
2013-02-05 07:40:00,29.5,26.1,29.86,NW,315,6.8,-999.0,87,-99.99,,,0.00,Acu-Link.com,2013-02-05 12:40:00,
2013-02-05 07:55:00,30.0,26.3,29.87,NNW,337,5.8,-999.0,86,-99.99,,,0.00,Acu-Link.com,2013-02-05 12:55:00,
2013-02-05 08:10:00,30.2,26.2,29.88,NW,315,6.3,-999.0,85,-99.99,,,0.00,Acu-Link.com,2013-02-05 13:10:00,
2013-02-05 08:26:00,30.9,26.4,29.87,NNE,22,3.7,-999.0,83,-99.99,,,0.00,Acu-Link.com,2013-02-05 13:26:00,
2013-02-05 08:41:00,30.9,26.1,29.88,NNW,337,7.3,-999.0,82,-99.99,,,0.00,Acu-Link.com,2013-02-05 13:41:00,
2013-02-05 08:56:00,30.9,26.1,29.88,WNW,292,2.2,-999.0,82,-99.99,,,0.00,Acu-Link.com,2013-02-05 13:56:00,
2013-02-05 09:11:00,31.3,26.2,29.88,NNW,337,3.2,-999.0,81,-99.99,,,0.00,Acu-Link.com,2013-02-05 14:11:00,
2013-02-05 09:26:00,30.6,25.5,29.87,NNW,337,4.2,-999.0,81,-99.99,,,0.00,Acu-Link.com,2013-02-05 14:26:00,
2013-02-05 09:41:00,31.1,26.0,29.87,NNW,337,8.3,-999.0,81,-99.99,,,0.00,Acu-Link.com,2013-02-05 14:41:00,
2013-02-05 09:57:00,30.9,25.5,29.88,NNE,22,6.8,-999.0,80,-99.99,,,0.00,Acu-Link.com,2013-02-05 14:57:00,
2013-02-05 10:12:00,31.3,25.9,29.89,NW,315,7.8,-999.0,80,-99.99,,,0.00,Acu-Link.com,2013-02-05 15:12:00,
2013-02-05 10:27:00,30.7,25.6,29.89,NNE,22,4.2,-999.0,81,-99.99,,,0.00,Acu-Link.com,2013-02-05 15:27:00,
2013-02-05 10:43:00,30.9,25.5,29.89,North,0,8.9,-999.0,80,-99.99,,,0.00,Acu-Link.com,2013-02-05 15:43:00,
2013-02-05 10:58:00,31.3,26.2,29.89,NNW,337,3.2,-999.0,81,-99.99,,,0.00,Acu-Link.com,2013-02-05 15:58:00,
2013-02-05 11:13:00,31.5,26.1,29.88,West,270,7.8,-999.0,80,-99.99,,,0.00,Acu-Link.com,2013-02-05 16:13:00,
2013-02-05 11:29:00,31.8,26.0,29.87,NE,45,9.4,-999.0,79,-99.99,,,0.00,Acu-Link.com,2013-02-05 16:29:00,
2013-02-05 11:44:00,31.5,25.8,29.87,NE,45,6.3,-999.0,79,-99.99,,,0.00,Acu-Link.com,2013-02-05 16:44:00,
2013-02-05 11:59:00,31.3,25.9,29.86,North,0,7.3,-999.0,80,-99.99,,,0.00,Acu-Link.com,2013-02-05 16:59:00,
2013-02-05 12:14:00,31.5,26.1,29.86,NNW,337,6.8,-999.0,80,-99.99,,,0.00,Acu-Link.com,2013-02-05 17:14:00,
2013-02-05 12:30:00,31.3,26.2,29.86,NNW,337,6.8,-999.0,81,-99.99,,,0.00,Acu-Link.com,2013-02-05 17:30:00,
2013-02-05 12:45:00,31.5,26.1,29.86,NNE,22,7.8,-999.0,80,-99.99,,,0.00,Acu-Link.com,2013-02-05 17:45:00,
2013-02-05 13:00:00,30.9,25.8,29.86,NW,315,8.3,-999.0,81,-99.99,,,0.00,Acu-Link.com,2013-02-05 18:00:00,
2013-02-05 13:16:00,30.6,25.5,29.86,NNE,22,5.8,-999.0,81,-99.99,,,0.00,Acu-Link.com,2013-02-05 18:16:00,
2013-02-05 13:31:00,31.3,25.9,29.84,NE,45,9.9,-999.0,80,-99.99,,,0.00,Acu-Link.com,2013-02-05 18:31:00,
2013-02-05 13:46:00,31.5,26.4,29.84,NNE,22,6.3,-999.0,81,-99.99,,,0.00,Acu-Link.com,2013-02-05 18:46:00,
2013-02-05 14:01:00,32.0,26.8,29.83,NW,315,6.3,-999.0,81,-99.99,,,0.00,Acu-Link.com,2013-02-05 19:01:00,
2013-02-05 14:17:00,31.3,26.7,29.82,NNW,337,3.2,-999.0,83,-99.99,,,0.00,Acu-Link.com,2013-02-05 19:17:00,
2013-02-05 14:32:00,31.5,26.7,29.82,NNW,337,5.8,-999.0,82,-99.99,,,0.00,Acu-Link.com,2013-02-05 19:32:00,
2013-02-05 14:47:00,31.5,26.7,29.82,NNE,22,8.9,-999.0,82,-99.99,,,0.00,Acu-Link.com,2013-02-05 19:47:00,
2013-02-05 15:03:00,31.5,26.7,29.83,NW,315,8.3,-999.0,82,-99.99,,,0.00,Acu-Link.com,2013-02-05 20:03:00,
2013-02-05 15:18:00,31.5,26.7,29.84,NNE,22,9.9,-999.0,82,-99.99,,,0.00,Acu-Link.com,2013-02-05 20:18:00,
2013-02-05 15:33:00,31.6,26.7,29.84,WNW,292,5.8,-999.0,82,-99.99,,,0.00,Acu-Link.com,2013-02-05 20:33:00,
2013-02-05 15:48:00,31.5,26.7,29.83,NW,315,6.8,-999.0,82,-99.99,,,0.00,Acu-Link.com,2013-02-05 20:48:00,
2013-02-05 16:04:00,31.3,26.7,29.83,NW,315,8.3,-999.0,83,-99.99,,,0.00,Acu-Link.com,2013-02-05 21:04:00,
2013-02-05 16:20:00,31.1,26.6,29.83,NNW,337,7.8,-999.0,83,-99.99,,,0.00,Acu-Link.com,2013-02-05 21:20:00,
2013-02-05 16:35:00,31.3,26.7,29.83,NNW,337,6.8,-999.0,83,-99.99,,,0.00,Acu-Link.com,2013-02-05 21:35:00,
2013-02-05 16:50:00,31.5,26.7,29.83,NNW,337,4.2,-999.0,82,-99.99,,,0.00,Acu-Link.com,2013-02-05 21:50:00,
2013-02-05 17:05:00,31.6,27.0,29.82,NNW,337,8.3,-999.0,83,-99.99,,,0.00,Acu-Link.com,2013-02-05 22:05:00,
2013-02-05 17:21:00,32.0,27.4,29.82,NNW,337,8.3,-999.0,83,-99.99,,,0.00,Acu-Link.com,2013-02-05 22:21:00,
2013-02-05 17:36:00,32.4,27.8,29.82,NNW,337,6.8,-999.0,83,-99.99,,,0.00,Acu-Link.com,2013-02-05 22:36:00,
2013-02-05 17:52:00,33.1,28.2,29.81,WSW,247,4.2,-999.0,82,-99.99,,,0.00,Acu-Link.com,2013-02-05 22:52:00,
2013-02-05 18:07:00,32.9,27.7,29.82,NNE,22,6.8,-999.0,81,-99.99,,,0.00,Acu-Link.com,2013-02-05 23:07:00,
2013-02-05 18:22:00,33.3,28.4,29.82,East,90,3.2,-999.0,82,-99.99,,,0.00,Acu-Link.com,2013-02-05 23:22:00,
2013-02-05 18:37:00,33.4,28.2,29.82,North,0,5.8,-999.0,81,-99.99,,,0.00,Acu-Link.com,2013-02-05 23:37:00,
2013-02-05 18:53:00,32.5,28.2,29.83,North,0,7.3,-999.0,84,-99.99,,,0.00,Acu-Link.com,2013-02-05 23:53:00,
2013-02-05 19:08:00,32.9,28.6,29.83,NNW,337,4.7,-999.0,84,-99.99,,,0.00,Acu-Link.com,2013-02-06 00:08:00,
2013-02-05 19:23:00,32.7,28.4,29.83,NW,315,8.3,-999.0,84,-99.99,,,0.00,Acu-Link.com,2013-02-06 00:23:00,
2013-02-05 19:39:00,32.9,28.6,29.83,NNW,337,6.8,-999.0,84,-99.99,,,0.00,Acu-Link.com,2013-02-06 00:39:00,
2013-02-05 19:54:00,32.9,28.9,29.83,North,0,4.7,-999.0,85,-99.99,,,0.00,Acu-Link.com,2013-02-06 00:54:00,
2013-02-05 20:09:00,32.7,29.3,29.83,NNE,22,6.3,-999.0,87,-99.99,,,0.00,Acu-Link.com,2013-02-06 01:09:00,
2013-02-05 20:25:00,32.4,29.5,29.83,West,270,6.8,-999.0,89,-99.99,,,0.00,Acu-Link.com,2013-02-06 01:25:00,
2013-02-05 20:40:00,32.4,29.5,29.83,NNW,337,6.3,-999.0,89,-99.99,,,0.00,Acu-Link.com,2013-02-06 01:40:00,
2013-02-05 20:55:00,32.9,30.0,29.83,NW,315,7.3,-999.0,89,-99.99,,,0.00,Acu-Link.com,2013-02-06 01:55:00,
2013-02-05 21:10:00,32.9,29.5,29.84,North,0,5.8,-999.0,87,-99.99,,,0.00,Acu-Link.com,2013-02-06 02:10:00,
2013-02-05 21:25:00,32.7,29.3,29.83,NNE,22,4.7,-999.0,87,-99.99,,,0.00,Acu-Link.com,2013-02-06 02:25:00,
2013-02-05 21:41:00,33.6,29.9,29.84,NW,315,5.8,-999.0,86,-99.99,,,0.00,Acu-Link.com,2013-02-06 02:41:00,
2013-02-05 21:56:00,33.4,30.2,29.84,East,90,3.2,-999.0,88,-99.99,,,0.00,Acu-Link.com,2013-02-06 02:56:00,
2013-02-05 22:11:00,33.4,30.0,29.84,NNE,22,3.7,-999.0,87,-99.99,,,0.00,Acu-Link.com,2013-02-06 03:11:00,
2013-02-05 22:27:00,33.8,30.3,29.84,NNE,22,4.2,-999.0,87,-99.99,,,0.00,Acu-Link.com,2013-02-06 03:27:00,
2013-02-05 22:42:00,34.0,30.5,29.84,NE,45,2.7,-999.0,87,-99.99,,,0.00,Acu-Link.com,2013-02-06 03:42:00,
2013-02-05 22:57:00,34.3,30.8,29.84,NNE,22,7.3,-999.0,87,-99.99,,,0.00,Acu-Link.com,2013-02-06 03:57:00,
2013-02-05 23:13:00,33.8,30.6,29.85,NNE,22,2.2,-999.0,88,-99.99,,,0.00,Acu-Link.com,2013-02-06 04:13:00,
2013-02-05 23:28:00,33.8,30.6,29.84,NW,315,3.2,-999.0,88,-99.99,,,0.00,Acu-Link.com,2013-02-06 04:28:00,
2013-02-05 23:43:00,33.6,31.0,29.85,NW,315,4.2,-999.0,90,-99.99,,,0.00,Acu-Link.com,2013-02-06 04:43:00,
2013-02-05 23:59:00,32.7,31.2,29.84,West,270,6.3,-999.0,94,-99.99,,,0.00,Acu-Link.com,2013-02-06 04:59:00,